Time,TemperatureF,DewpointF,PressureIn,WindDirection,WindDirectionDegrees,WindSpeedMPH,WindSpeedGustMPH,Humidity,HourlyPrecipIn,Conditions,Clouds,dailyrainin,SoftwareType,DateUTC
2013-02-01 00:01:00,31.3,19.0,29.98,North,350,0.0,0.0,60,0.00,,---,0.30,VWS V14.01,2013-02-01 05:01:00,
2013-02-01 00:07:00,31.5,19.2,29.97,North,350,0.0,0.0,60,0.00,,---,0.00,VWS V14.01,2013-02-01 05:07:00,
2013-02-01 00:22:00,31.5,19.2,29.96,North,350,0.0,0.0,60,0.00,,---,0.00,VWS V14.01,2013-02-01 05:22:00,
2013-02-01 00:30:00,31.4,20.3,29.95,North,350,0.0,0.0,63,0.00,,---,0.00,VWS V14.01,2013-02-01 05:30:00,
2013-02-01 00:37:00,31.1,20.4,29.96,North,350,0.0,0.0,64,0.00,,---,0.00,VWS V14.01,2013-02-01 05:37:00,
2013-02-01 00:52:00,30.5,20.5,29.95,North,350,0.0,0.0,66,0.00,,---,0.00,VWS V14.01,2013-02-01 05:52:00,
2013-02-01 01:00:00,30.3,20.7,29.95,North,350,0.0,1.0,67,0.00,,---,0.00,VWS V15.00,2013-02-01 06:00:00,
2013-02-01 01:01:00,30.1,20.8,29.95,North,350,0.0,0.0,68,0.00,,---,0.00,VWS V14.01,2013-02-01 06:01:00,
2013-02-01 01:07:00,29.8,20.5,29.95,North,350,0.0,0.0,68,0.00,,---,0.00,VWS V14.01,2013-02-01 06:07:00,
2013-02-01 01:22:00,29.3,22.7,29.95,North,350,0.0,0.0,76,0.00,,---,0.00,VWS V14.01,2013-02-01 06:22:00,
2013-02-01 01:31:00,29.1,21.2,29.95,North,350,0.0,0.0,72,0.00,,---,0.00,VWS V14.01,2013-02-01 06:31:00,
2013-02-01 01:37:00,29.0,21.4,29.96,North,350,0.0,0.0,73,0.00,,---,0.00,VWS V14.01,2013-02-01 06:37:00,
2013-02-01 01:52:00,29.6,22.0,29.95,North,350,0.0,0.0,73,0.00,,---,0.00,VWS V14.01,2013-02-01 06:52:00,
2013-02-01 02:00:00,33.2,22.0,29.92,West,267,0.0,2.0,63,0.00,,---,0.00,VWS V15.00,2013-02-01 07:00:00,
2013-02-01 02:01:00,30.3,20.7,29.95,North,350,0.0,1.0,67,0.00,,---,0.00,VWS V14.01,2013-02-01 07:01:00,
2013-02-01 02:07:00,31.1,20.4,29.95,West,266,0.0,2.0,64,0.00,,---,0.00,VWS V14.01,2013-02-01 07:07:00,
2013-02-01 02:22:00,32.6,20.7,29.94,West,267,0.0,2.0,61,0.00,,---,0.00,VWS V14.01,2013-02-01 07:22:00,
2013-02-01 02:30:00,33.5,22.6,29.90,West,267,0.0,1.0,64,0.00,,---,0.00,VWS V15.00,2013-02-01 07:30:00,
2013-02-01 02:31:00,32.8,20.9,29.93,WSW,246,0.0,2.0,61,0.00,,---,0.00,VWS V14.01,2013-02-01 07:31:00,
2013-02-01 02:37:00,33.0,21.0,29.93,East,93,0.0,2.0,61,0.00,,---,0.00,VWS V14.01,2013-02-01 07:37:00,
2013-02-01 02:52:00,33.1,21.5,29.92,West,267,0.0,2.0,62,0.00,,---,0.00,VWS V14.01,2013-02-01 07:52:00,
2013-02-01 03:01:00,33.2,22.0,29.92,West,267,0.0,2.0,63,0.00,,---,0.00,VWS V14.01,2013-02-01 08:01:00,
2013-02-01 03:07:00,33.2,22.0,29.92,West,267,0.0,1.0,63,0.00,,---,0.00,VWS V14.01,2013-02-01 08:07:00,
2013-02-01 03:22:00,33.4,22.5,29.91,West,267,0.0,1.0,64,0.00,,---,0.00,VWS V14.01,2013-02-01 08:22:00,
2013-02-01 03:31:00,33.5,22.6,29.90,West,267,0.0,1.0,64,0.00,,---,0.00,VWS V14.01,2013-02-01 08:31:00,
2013-02-01 03:37:00,33.5,22.3,29.90,West,267,0.0,1.0,63,0.00,,---,0.00,VWS V14.01,2013-02-01 08:37:00,
2013-02-01 03:52:00,33.7,22.5,29.89,West,267,0.0,1.0,63,0.00,,---,0.00,VWS V14.01,2013-02-01 08:52:00,
2013-02-01 04:01:00,33.8,22.9,29.89,West,267,0.0,1.0,64,0.00,,---,0.00,VWS V14.01,2013-02-01 09:01:00,
2013-02-01 04:07:00,33.9,23.0,29.89,West,267,0.0,0.0,64,0.00,,---,0.00,VWS V14.01,2013-02-01 09:07:00,
2013-02-01 04:22:00,34.4,23.9,29.88,West,263,0.0,1.0,65,0.00,,---,0.00,VWS V14.01,2013-02-01 09:22:00,
2013-02-01 04:30:00,34.2,28.4,29.87,West,265,0.0,1.0,79,0.00,,---,0.00,VWS V15.00,2013-02-01 09:30:00,
2013-02-01 04:31:00,34.5,24.3,29.88,West,263,1.0,1.0,66,0.00,,---,0.00,VWS V14.01,2013-02-01 09:31:00,
2013-02-01 04:37:00,34.8,23.9,29.88,West,263,0.0,2.0,64,0.00,,---,0.00,VWS V14.01,2013-02-01 09:37:00,
2013-02-01 04:52:00,35.0,24.1,29.87,West,263,0.0,2.0,64,0.00,,---,0.00,VWS V14.01,2013-02-01 09:52:00,
2013-02-01 05:00:00,33.3,29.0,29.90,West,279,0.0,2.0,84,0.00,,---,0.00,VWS V15.00,2013-02-01 10:00:00,
2013-02-01 05:01:00,35.0,24.1,29.87,West,263,0.0,2.0,64,0.00,,---,0.00,VWS V14.01,2013-02-01 10:01:00,
2013-02-01 05:07:00,35.1,24.9,29.87,West,263,0.0,0.0,66,0.00,,---,0.00,VWS V14.01,2013-02-01 10:07:00,
2013-02-01 05:22:00,34.8,27.7,29.88,West,263,0.0,1.0,75,0.00,,---,0.00,VWS V14.01,2013-02-01 10:22:00,
2013-02-01 05:30:00,34.2,28.4,29.87,West,265,0.0,1.0,79,0.00,,---,0.00,VWS V14.01,2013-02-01 10:30:00,
2013-02-01 05:37:00,33.7,28.8,29.87,SSW,205,2.0,2.0,82,0.00,,---,0.00,VWS V14.01,2013-02-01 10:37:00,
2013-02-01 05:52:00,33.3,29.0,29.89,SW,227,0.0,2.0,84,0.00,,---,0.00,VWS V14.01,2013-02-01 10:52:00,
2013-02-01 06:00:00,33.3,29.0,29.90,West,279,0.0,2.0,84,0.00,,---,0.00,VWS V14.01,2013-02-01 11:00:00,
2013-02-01 06:07:00,33.3,29.0,29.91,West,279,0.0,0.0,84,0.00,,---,0.00,VWS V14.01,2013-02-01 11:07:00,
2013-02-01 06:22:00,33.2,27.4,29.93,NE,36,0.0,4.0,79,0.00,,---,0.00,VWS V14.01,2013-02-01 11:22:00,
2013-02-01 06:30:00,28.8,24.9,29.98,NW,306,0.0,5.0,85,0.00,,---,0.00,VWS V15.00,2013-02-01 11:30:00,
2013-02-01 06:31:00,32.9,26.2,29.93,WSW,257,0.0,4.0,76,0.00,,---,0.00,VWS V14.01,2013-02-01 11:31:00,
2013-02-01 06:37:00,32.5,26.4,29.95,NNE,15,0.0,6.0,78,0.00,,---,0.00,VWS V14.01,2013-02-01 11:37:00,
2013-02-01 06:52:00,30.6,27.2,29.96,North,360,0.0,6.0,87,0.00,,---,0.00,VWS V14.01,2013-02-01 11:52:00,
2013-02-01 07:00:00,30.1,27.3,29.96,WNW,285,0.0,6.0,89,0.00,,---,0.00,VWS V14.01,2013-02-01 12:00:00,
2013-02-01 07:07:00,29.9,27.3,29.98,NE,45,4.0,4.0,90,0.00,,---,0.00,VWS V14.01,2013-02-01 12:07:00,
2013-02-01 07:23:00,28.8,25.1,29.98,SW,232,0.0,5.0,86,0.00,,---,0.00,VWS V14.01,2013-02-01 12:23:00,
2013-02-01 07:30:00,29.8,23.5,30.03,NNE,24,2.0,6.0,77,0.00,,---,0.00,VWS V15.00,2013-02-01 12:30:00,
2013-02-01 07:31:00,28.8,24.9,29.98,NW,306,0.0,5.0,85,0.00,,---,0.00,VWS V14.01,2013-02-01 12:31:00,
2013-02-01 07:38:00,28.9,25.0,29.98,NE,43,0.0,0.0,85,0.00,,---,0.00,VWS V14.01,2013-02-01 12:38:00,
2013-02-01 07:53:00,29.3,24.5,30.00,NE,51,1.0,4.0,82,0.00,,---,0.00,VWS V14.01,2013-02-01 12:53:00,
2013-02-01 08:00:00,28.4,22.4,30.07,NE,55,0.0,13.0,78,0.00,,---,0.00,VWS V15.00,2013-02-01 13:00:00,
2013-02-01 08:01:00,29.5,24.1,30.01,West,267,0.0,4.0,80,0.00,,---,0.00,VWS V14.01,2013-02-01 13:01:00,
2013-02-01 08:08:00,29.6,23.6,30.02,WNW,294,0.0,5.0,78,0.00,,---,0.00,VWS V14.01,2013-02-01 13:08:00,
2013-02-01 08:23:00,29.7,23.4,30.03,NW,319,0.0,6.0,77,0.00,,---,0.00,VWS V14.01,2013-02-01 13:23:00,
2013-02-01 08:30:00,29.2,18.9,30.09,West,259,3.0,10.0,65,0.00,,---,0.00,VWS V15.00,2013-02-01 13:30:00,
2013-02-01 08:31:00,29.8,23.5,30.03,NNE,24,2.0,6.0,77,0.00,,---,0.00,VWS V14.01,2013-02-01 13:31:00,
2013-02-01 08:38:00,29.9,23.6,30.04,SW,229,2.0,3.0,77,0.00,,---,0.00,VWS V14.01,2013-02-01 13:38:00,
2013-02-01 08:53:00,28.9,24.1,30.06,West,269,1.0,11.0,82,0.00,,---,0.00,VWS V14.01,2013-02-01 13:53:00,
2013-02-01 09:00:00,29.0,16.5,30.12,WNW,292,4.0,14.0,59,0.00,,---,0.00,VWS V15.00,2013-02-01 14:00:00,
2013-02-01 09:01:00,28.4,22.4,30.07,NE,55,0.0,13.0,78,0.00,,---,0.00,VWS V14.01,2013-02-01 14:01:00,
2013-02-01 09:08:00,28.8,21.6,30.07,North,360,4.0,10.0,74,0.00,,---,0.00,VWS V14.01,2013-02-01 14:08:00,
2013-02-01 09:23:00,29.6,20.0,30.09,NNW,345,2.0,10.0,67,0.00,,---,0.00,VWS V14.01,2013-02-01 14:23:00,
2013-02-01 09:30:00,29.7,14.7,30.14,West,271,1.0,12.0,53,0.00,,---,0.00,VWS V15.00,2013-02-01 14:30:00,
2013-02-01 09:31:00,29.2,18.9,30.09,West,259,3.0,10.0,65,0.00,,---,0.00,VWS V14.01,2013-02-01 14:31:00,
2013-02-01 09:38:00,29.0,18.0,30.09,WNW,288,5.0,10.0,63,0.00,,---,0.00,VWS V14.01,2013-02-01 14:38:00,
2013-02-01 09:53:00,29.0,16.5,30.11,West,274,3.0,14.0,59,0.00,,---,0.00,VWS V14.01,2013-02-01 14:53:00,
2013-02-01 10:00:00,30.0,14.1,30.16,West,271,5.0,10.0,51,0.00,,---,0.00,VWS V15.00,2013-02-01 15:00:00,
2013-02-01 10:01:00,29.0,16.5,30.12,WNW,292,4.0,14.0,59,0.00,,---,0.00,VWS V14.01,2013-02-01 15:01:00,
2013-02-01 10:08:00,29.4,16.9,30.12,North,5,1.0,7.0,59,0.00,,---,0.00,VWS V14.01,2013-02-01 15:08:00,
2013-02-01 10:23:00,29.5,14.9,30.13,North,355,3.0,12.0,54,0.00,,---,0.00,VWS V14.01,2013-02-01 15:23:00,
2013-02-01 10:30:00,29.7,14.7,30.14,West,271,1.0,12.0,53,0.00,,---,0.00,VWS V14.01,2013-02-01 15:30:00,
2013-02-01 10:38:00,29.8,15.6,30.15,East,87,0.0,8.0,55,0.00,,---,0.00,VWS V14.01,2013-02-01 15:38:00,
2013-02-01 10:53:00,29.9,13.5,30.16,SSE,157,2.0,8.0,50,0.00,,---,0.00,VWS V14.01,2013-02-01 15:53:00,
2013-02-01 11:00:00,30.0,14.1,30.16,West,271,5.0,10.0,51,0.00,,---,0.00,VWS V14.01,2013-02-01 16:00:00,
2013-02-01 11:08:00,30.1,13.7,30.17,SW,218,2.0,7.0,50,0.00,,---,0.00,VWS V14.01,2013-02-01 16:08:00,
2013-02-01 11:23:00,30.4,14.0,30.17,North,350,0.0,13.0,50,0.00,,---,0.00,VWS V14.01,2013-02-01 16:23:00,
2013-02-01 11:30:00,28.9,12.6,30.21,West,269,1.0,10.0,50,0.00,,---,0.00,VWS V15.00,2013-02-01 16:30:00,
2013-02-01 11:31:00,30.3,13.9,30.18,SE,138,1.0,13.0,50,0.00,,---,0.00,VWS V14.01,2013-02-01 16:31:00,
2013-02-01 11:38:00,30.0,13.2,30.18,WNW,291,4.0,7.0,49,0.00,,---,0.00,VWS V14.01,2013-02-01 16:38:00,
2013-02-01 11:53:00,29.6,13.3,30.19,NNE,19,0.0,11.0,50,0.00,,---,0.00,VWS V14.01,2013-02-01 16:53:00,
2013-02-01 12:00:00,30.0,13.2,30.21,WNW,289,1.0,10.0,49,0.00,,---,0.00,VWS V15.00,2013-02-01 17:00:00,
2013-02-01 12:01:00,29.9,14.0,30.19,ENE,78,0.0,11.0,51,0.00,,---,0.00,VWS V14.01,2013-02-01 17:01:00,
2013-02-01 12:08:00,29.6,12.3,30.20,NNW,333,0.0,7.0,48,0.00,,---,0.00,VWS V14.01,2013-02-01 17:08:00,
2013-02-01 12:23:00,28.9,12.1,30.20,NE,46,5.0,10.0,49,0.00,,---,0.00,VWS V14.01,2013-02-01 17:23:00,
2013-02-01 12:30:00,29.6,12.8,30.21,SE,133,1.0,13.0,49,0.00,,---,0.00,VWS V15.00,2013-02-01 17:30:00,
2013-02-01 12:31:00,28.9,12.6,30.21,West,269,1.0,10.0,50,0.00,,---,0.00,VWS V14.01,2013-02-01 17:31:00,
2013-02-01 12:38:00,29.3,13.0,30.20,SW,230,1.0,6.0,50,0.00,,---,0.00,VWS V14.01,2013-02-01 17:38:00,
2013-02-01 12:53:00,29.4,12.6,30.21,SW,223,1.0,10.0,49,0.00,,---,0.00,VWS V14.01,2013-02-01 17:53:00,
2013-02-01 13:00:00,30.7,13.8,30.23,West,265,0.0,12.0,49,0.00,,---,0.00,VWS V15.00,2013-02-01 18:00:00,
2013-02-01 13:01:00,30.0,13.2,30.21,WNW,289,1.0,10.0,49,0.00,,---,0.00,VWS V14.01,2013-02-01 18:01:00,
2013-02-01 13:08:00,30.1,13.7,30.21,West,265,0.0,13.0,50,0.00,,---,0.00,VWS V14.01,2013-02-01 18:08:00,
2013-02-01 13:23:00,29.5,12.2,30.21,West,263,0.0,13.0,48,0.00,,---,0.00,VWS V14.01,2013-02-01 18:23:00,
2013-02-01 13:30:00,29.8,11.6,30.24,NE,46,1.0,9.0,46,0.00,,---,0.00,VWS V15.00,2013-02-01 18:30:00,
2013-02-01 13:31:00,29.6,12.8,30.21,SE,133,1.0,13.0,49,0.00,,---,0.00,VWS V14.01,2013-02-01 18:31:00,
2013-02-01 13:38:00,29.9,12.6,30.21,NNE,25,2.0,7.0,48,0.00,,---,0.00,VWS V14.01,2013-02-01 18:38:00,
2013-02-01 13:53:00,30.1,12.8,30.22,WNW,301,0.0,12.0,48,0.00,,---,0.00,VWS V14.01,2013-02-01 18:53:00,
2013-02-01 14:00:00,30.4,11.1,30.25,ENE,68,0.0,14.0,44,0.00,,---,0.00,VWS V15.00,2013-02-01 19:00:00,
2013-02-01 14:01:00,30.7,13.8,30.23,West,265,0.0,12.0,49,0.00,,---,0.00,VWS V14.01,2013-02-01 19:01:00,
2013-02-01 14:08:00,30.6,13.3,30.23,West,261,4.0,9.0,48,0.00,,---,0.00,VWS V14.01,2013-02-01 19:08:00,
2013-02-01 14:23:00,30.0,11.7,30.24,NNE,26,0.0,9.0,46,0.00,,---,0.00,VWS V14.01,2013-02-01 19:23:00,
2013-02-01 14:30:00,29.4,11.2,30.26,North,360,0.0,15.0,46,0.00,,---,0.00,VWS V15.00,2013-02-01 19:30:00,
2013-02-01 14:31:00,29.8,11.6,30.24,NE,46,1.0,9.0,46,0.00,,---,0.00,VWS V14.01,2013-02-01 19:31:00,
2013-02-01 14:38:00,30.7,12.4,30.24,NW,310,2.0,5.0,46,0.00,,---,0.00,VWS V14.01,2013-02-01 19:38:00,
2013-02-01 14:53:00,30.5,11.2,30.25,ENE,67,4.0,11.0,44,0.00,,---,0.00,VWS V14.01,2013-02-01 19:53:00,
2013-02-01 15:00:00,30.1,11.3,30.28,WNW,286,0.0,9.0,45,0.00,,---,0.00,VWS V15.00,2013-02-01 20:00:00,
2013-02-01 15:01:00,30.4,11.1,30.25,ENE,68,0.0,14.0,44,0.00,,---,0.00,VWS V14.01,2013-02-01 20:01:00,
2013-02-01 15:08:00,29.8,10.6,30.26,West,277,3.0,15.0,44,0.00,,---,0.00,VWS V14.01,2013-02-01 20:08:00,
2013-02-01 15:23:00,29.5,11.3,30.26,NNE,19,0.0,15.0,46,0.00,,---,0.00,VWS V14.01,2013-02-01 20:23:00,
2013-02-01 15:30:00,28.4,10.3,30.30,North,360,0.0,10.0,46,0.00,,---,0.00,VWS V15.00,2013-02-01 20:30:00,
2013-02-01 15:31:00,29.4,11.2,30.26,North,360,0.0,15.0,46,0.00,,---,0.00,VWS V14.01,2013-02-01 20:31:00,
2013-02-01 15:38:00,29.9,12.1,30.27,North,360,0.0,7.0,47,0.00,,---,0.00,VWS V14.01,2013-02-01 20:38:00,
2013-02-01 15:53:00,30.3,11.5,30.28,WNW,295,0.0,9.0,45,0.00,,---,0.00,VWS V14.01,2013-02-01 20:53:00,
2013-02-01 16:00:00,27.1,10.0,30.32,NE,56,2.0,12.0,48,0.00,,---,0.00,VWS V15.00,2013-02-01 21:00:00,
2013-02-01 16:01:00,30.1,11.3,30.28,WNW,286,0.0,9.0,45,0.00,,---,0.00,VWS V14.01,2013-02-01 21:01:00,
2013-02-01 16:08:00,29.9,11.2,30.28,West,269,3.0,7.0,45,0.00,,---,0.00,VWS V14.01,2013-02-01 21:08:00,
2013-02-01 16:23:00,28.8,10.1,30.29,West,261,10.0,10.0,45,0.00,,---,0.00,VWS V14.01,2013-02-01 21:23:00,
2013-02-01 16:30:00,26.3,9.3,30.33,WNW,289,1.0,7.0,48,0.00,,---,0.00,VWS V15.00,2013-02-01 21:30:00,
2013-02-01 16:31:00,28.4,10.3,30.30,North,360,0.0,10.0,46,0.00,,---,0.00,VWS V14.01,2013-02-01 21:31:00,
2013-02-01 16:38:00,28.0,9.9,30.30,WNW,292,1.0,12.0,46,0.00,,---,0.00,VWS V14.01,2013-02-01 21:38:00,
2013-02-01 16:53:00,27.4,9.8,30.31,WNW,287,3.0,12.0,47,0.00,,---,0.00,VWS V14.01,2013-02-01 21:53:00,
2013-02-01 17:00:00,25.7,8.7,30.35,WNW,287,0.0,9.0,48,0.00,,---,0.00,VWS V15.00,2013-02-01 22:00:00,
2013-02-01 17:01:00,27.1,10.0,30.32,NE,56,2.0,12.0,48,0.00,,---,0.00,VWS V14.01,2013-02-01 22:01:00,
2013-02-01 17:08:00,26.9,9.4,30.32,NNE,33,0.0,7.0,47,0.00,,---,0.00,VWS V14.01,2013-02-01 22:08:00,
2013-02-01 17:23:00,26.5,9.5,30.32,West,264,0.0,7.0,48,0.00,,---,0.00,VWS V14.01,2013-02-01 22:23:00,
2013-02-01 17:30:00,25.1,9.1,30.36,WSW,248,0.0,4.0,50,0.00,,---,0.00,VWS V15.00,2013-02-01 22:30:00,
2013-02-01 17:31:00,26.3,9.3,30.33,WNW,289,1.0,7.0,48,0.00,,---,0.00,VWS V14.01,2013-02-01 22:31:00,
2013-02-01 17:38:00,26.2,9.2,30.33,WNW,294,0.0,8.0,48,0.00,,---,0.00,VWS V14.01,2013-02-01 22:38:00,
2013-02-01 17:53:00,25.8,8.8,30.34,West,274,0.0,9.0,48,0.00,,---,0.00,VWS V14.01,2013-02-01 22:53:00,
2013-02-01 18:00:00,24.6,8.6,30.38,ENE,69,0.0,5.0,50,0.00,,---,0.00,VWS V15.00,2013-02-01 23:00:00,
2013-02-01 18:01:00,25.7,8.7,30.35,WNW,287,0.0,9.0,48,0.00,,---,0.00,VWS V14.01,2013-02-01 23:01:00,
2013-02-01 18:08:00,25.5,9.0,30.35,SW,230,0.0,4.0,49,0.00,,---,0.00,VWS V14.01,2013-02-01 23:08:00,
2013-02-01 18:23:00,25.2,8.7,30.36,West,272,0.0,4.0,49,0.00,,---,0.00,VWS V14.01,2013-02-01 23:23:00,
2013-02-01 18:30:00,24.2,8.7,30.38,WNW,287,0.0,5.0,51,0.00,,---,0.00,VWS V15.00,2013-02-01 23:30:00,
2013-02-01 18:31:00,25.1,9.1,30.36,WSW,248,0.0,4.0,50,0.00,,---,0.00,VWS V14.01,2013-02-01 23:31:00,
2013-02-01 18:38:00,25.0,9.0,30.37,North,5,0.0,4.0,50,0.00,,---,0.00,VWS V14.01,2013-02-01 23:38:00,
2013-02-01 18:53:00,24.8,8.4,30.38,WNW,284,0.0,5.0,49,0.00,,---,0.00,VWS V14.01,2013-02-01 23:53:00,
2013-02-01 19:00:00,23.9,8.4,30.40,West,273,2.0,5.0,51,0.00,,---,0.00,VWS V15.00,2013-02-02 00:00:00,
2013-02-01 19:01:00,24.6,8.6,30.38,ENE,69,0.0,5.0,50,0.00,,---,0.00,VWS V14.01,2013-02-02 00:01:00,
2013-02-01 19:08:00,24.5,8.5,30.39,SW,222,0.0,2.0,50,0.00,,---,0.00,VWS V14.01,2013-02-02 00:08:00,
2013-02-01 19:23:00,24.3,8.8,30.39,WNW,290,0.0,5.0,51,0.00,,---,0.00,VWS V14.01,2013-02-02 00:23:00,
2013-02-01 19:30:00,23.5,8.1,30.40,NW,307,0.0,5.0,51,0.00,,---,0.00,VWS V15.00,2013-02-02 00:30:00,
2013-02-01 19:31:00,24.2,8.7,30.38,WNW,287,0.0,5.0,51,0.00,,---,0.00,VWS V14.01,2013-02-02 00:31:00,
2013-02-01 19:38:00,24.1,8.6,30.39,WNW,284,0.0,5.0,51,0.00,,---,0.00,VWS V14.01,2013-02-02 00:38:00,
2013-02-01 19:53:00,23.9,8.4,30.39,West,278,1.0,5.0,51,0.00,,---,0.00,VWS V14.01,2013-02-02 00:53:00,
2013-02-01 20:00:00,23.2,8.6,30.41,NW,323,0.0,4.0,53,0.00,,---,0.00,VWS V15.00,2013-02-02 01:00:00,
2013-02-01 20:01:00,23.9,8.4,30.40,West,273,2.0,5.0,51,0.00,,---,0.00,VWS V14.01,2013-02-02 01:01:00,
2013-02-01 20:08:00,23.7,8.2,30.40,North,355,0.0,3.0,51,0.00,,---,0.00,VWS V14.01,2013-02-02 01:08:00,
2013-02-01 20:24:00,23.6,8.1,30.40,North,5,2.0,5.0,51,0.00,,---,0.00,VWS V14.01,2013-02-02 01:24:00,
2013-02-01 20:30:00,22.9,8.8,30.43,NNE,19,0.0,5.0,54,0.00,,---,0.00,VWS V15.00,2013-02-02 01:30:00,
2013-02-01 20:31:00,23.5,8.1,30.40,NW,307,0.0,5.0,51,0.00,,---,0.00,VWS V14.01,2013-02-02 01:31:00,
2013-02-01 20:39:00,23.4,8.4,30.41,East,91,0.0,2.0,52,0.00,,---,0.00,VWS V14.01,2013-02-02 01:39:00,
2013-02-01 20:54:00,23.3,8.7,30.41,WNW,300,0.0,4.0,53,0.00,,---,0.00,VWS V14.01,2013-02-02 01:54:00,
2013-02-01 21:00:00,22.3,8.2,30.43,NW,304,0.0,2.0,54,0.00,,---,0.00,VWS V15.00,2013-02-02 02:00:00,
2013-02-01 21:01:00,23.2,8.6,30.41,NW,323,0.0,4.0,53,0.00,,---,0.00,VWS V14.01,2013-02-02 02:01:00,
2013-02-01 21:09:00,23.1,8.5,30.41,NE,53,0.0,2.0,53,0.00,,---,0.00,VWS V14.01,2013-02-02 02:09:00,
2013-02-01 21:24:00,23.0,8.9,30.42,West,279,0.0,5.0,54,0.00,,---,0.00,VWS V14.01,2013-02-02 02:24:00,
2013-02-01 21:30:00,22.0,7.9,30.44,West,263,0.0,2.0,54,0.00,,---,0.00,VWS V15.00,2013-02-02 02:30:00,
2013-02-01 21:31:00,22.9,8.8,30.43,NNE,19,0.0,5.0,54,0.00,,---,0.00,VWS V14.01,2013-02-02 02:31:00,
2013-02-01 21:39:00,22.7,8.6,30.43,North,5,0.0,1.0,54,0.00,,---,0.00,VWS V14.01,2013-02-02 02:39:00,
2013-02-01 21:54:00,22.4,8.3,30.43,North,355,0.0,2.0,54,0.00,,---,0.00,VWS V14.01,2013-02-02 02:54:00,
2013-02-01 22:00:00,21.6,8.3,30.45,NE,40,3.0,3.0,56,0.00,,---,0.00,VWS V15.00,2013-02-02 03:00:00,
2013-02-01 22:01:00,22.3,8.2,30.43,NW,304,0.0,2.0,54,0.00,,---,0.00,VWS V14.01,2013-02-02 03:01:00,
2013-02-01 22:09:00,22.2,8.1,30.44,West,281,0.0,2.0,54,0.00,,---,0.00,VWS V14.01,2013-02-02 03:09:00,
2013-02-01 22:24:00,22.0,8.3,30.44,NE,50,0.0,2.0,55,0.00,,---,0.00,VWS V14.01,2013-02-02 03:24:00,
2013-02-01 22:30:00,21.3,8.4,30.46,West,263,0.0,4.0,57,0.00,,---,0.00,VWS V15.00,2013-02-02 03:30:00,
2013-02-01 22:31:00,22.0,7.9,30.44,West,263,0.0,2.0,54,0.00,,---,0.00,VWS V14.01,2013-02-02 03:31:00,
2013-02-01 22:39:00,21.9,8.2,30.44,WSW,257,0.0,2.0,55,0.00,,---,0.00,VWS V14.01,2013-02-02 03:39:00,
2013-02-01 22:54:00,21.7,8.4,30.45,SW,231,0.0,2.0,56,0.00,,---,0.00,VWS V14.01,2013-02-02 03:54:00,
2013-02-01 23:00:00,20.9,8.1,30.46,North,355,0.0,2.0,57,0.00,,---,0.00,VWS V15.00,2013-02-02 04:00:00,
2013-02-01 23:01:00,21.6,8.3,30.45,NE,40,3.0,3.0,56,0.00,,---,0.00,VWS V14.01,2013-02-02 04:01:00,
2013-02-01 23:09:00,21.6,8.3,30.45,WNW,298,0.0,3.0,56,0.00,,---,0.00,VWS V14.01,2013-02-02 04:09:00,
2013-02-01 23:24:00,21.4,8.1,30.46,SSW,196,0.0,4.0,56,0.00,,---,0.00,VWS V14.01,2013-02-02 04:24:00,
2013-02-01 23:30:00,20.9,7.7,30.46,WNW,287,0.0,8.0,56,0.00,,---,0.00,VWS V15.00,2013-02-02 04:30:00,
2013-02-01 23:31:00,21.3,8.4,30.46,West,263,0.0,4.0,57,0.00,,---,0.00,VWS V14.01,2013-02-02 04:31:00,
2013-02-01 23:39:00,21.2,8.0,30.46,WNW,294,0.0,2.0,56,0.00,,---,0.00,VWS V14.01,2013-02-02 04:39:00,
2013-02-01 23:54:00,21.0,8.2,30.47,West,273,0.0,2.0,57,0.00,,---,0.00,VWS V14.01,2013-02-02 04:54:00,